Time;durP1;ratioP1;P1;durP2;ratioP2;P2;SDS_P1;SDS_P2;PMS_P1;PMS_P2;Temp;Humidity;BMP_temperature;BMP_pressure;BME280_temperature;BME280_humidity;BME280_pressure;Samples;Min_cycle;Max_cycle;Signal;HPM_P1;HPM_P2
2021/12/22 00:00:08;;;;;;;13.73;10.30;;;;;;;1.26;46.49;100413.94;5025400;28;20515;-81
2021/12/22 00:02:35;;;;;;;25.77;17.43;;;;;;;1.82;47.00;100525.78;5007726;28;20470;-81
2021/12/22 00:05:00;;;;;;;25.60;18.13;;;;;;;0.73;47.17;100347.06;5007858;28;20022;-81
2021/12/22 00:07:26;;;;;;;14.10;11.30;;;;;;;1.64;46.97;100496.53;5025262;28;20034;-81
2021/12/22 00:09:51;;;;;;;17.90;12.03;;;;;;;2.18;47.18;100632.81;5007095;28;20029;-81
2021/12/22 00:12:16;;;;;;;15.50;12.13;;;;;;;0.37;47.12;100308.63;5023594;28;20018;-81
2021/12/22 00:14:42;;;;;;;17.40;11.83;;;;;;;2.34;47.39;100624.88;5007163;28;20015;-81
2021/12/22 00:17:07;;;;;;;17.60;13.03;;;;;;;1.71;46.85;100539.47;5024545;28;20026;-81
2021/12/22 00:19:33;;;;;;;18.17;13.37;;;;;;;1.09;47.38;100408.97;5007129;28;20066;-81
2021/12/22 00:21:59;;;;;;;18.83;13.87;;;;;;;2.36;47.28;100643.84;5024228;28;20082;-81
2021/12/22 00:24:24;;;;;;;17.83;13.27;;;;;;;0.91;46.92;100430.91;5024470;28;20030;-81
2021/12/22 00:26:50;;;;;;;17.00;13.63;;;;;;;0.98;47.21;100392.38;5026895;28;20014;-81
2021/12/22 00:29:17;;;;;;;19.07;13.63;;;;;;;2.38;47.35;100626.34;5028806;28;20026;-81
2021/12/22 00:31:56;;;;;;;18.77;13.10;;;;;;;2.26;47.47;100605.47;5029533;28;20017;-81
2021/12/22 00:34:21;;;;;;;16.77;12.27;;;;;;;1.51;47.54;100488.69;5027976;28;20022;-81
2021/12/22 00:36:47;;;;;;;18.60;12.20;;;;;;;1.72;47.69;100561.97;5011643;28;20033;-81
2021/12/22 00:39:12;;;;;;;16.77;12.57;;;;;;;1.62;48.04;100597.31;5010965;28;20014;-81
2021/12/22 00:41:38;;;;;;;18.23;12.83;;;;;;;2.17;48.14;100627.69;5010382;28;20014;-81
2021/12/22 00:44:04;;;;;;;19.03;13.33;;;;;;;1.60;47.90;100534.13;5028870;28;20409;-81
2021/12/22 00:46:30;;;;;;;16.67;12.97;;;;;;;1.48;47.74;100514.88;5011553;28;20030;-81
2021/12/22 00:48:55;;;;;;;16.53;12.60;;;;;;;1.44;48.07;100520.38;5010431;28;20049;-81
2021/12/22 00:51:21;;;;;;;17.20;12.60;;;;;;;1.44;48.05;100517.75;5028044;28;20022;-81
2021/12/22 00:53:46;;;;;;;18.10;13.50;;;;;;;1.77;47.71;100583.34;5029337;28;20021;-81
2021/12/22 00:56:12;;;;;;;17.10;12.63;;;;;;;1.65;47.93;100591.09;5027995;28;20022;-81
2021/12/22 00:58:38;;;;;;;16.77;13.63;;;;;;;0.64;48.31;100491.41;5027704;28;20017;-81
2021/12/22 01:01:03;;;;;;;20.57;16.10;;;;;;;1.96;48.14;100621.25;5010806;28;20088;-81
2021/12/22 01:03:29;;;;;;;19.93;15.03;;;;;;;0.08;48.39;100314.75;5011111;28;20026;-81
2021/12/22 01:05:55;;;;;;;18.93;13.90;;;;;;;-0.97;48.52;100143.69;5010807;28;20033;-81
2021/12/22 01:08:20;;;;;;;23.47;16.00;;;;;;;0.42;48.00;100426.06;5028297;28;20052;-81
2021/12/22 01:10:46;;;;;;;24.07;17.17;;;;;;;2.04;48.55;100642.44;5010658;28;20034;-81
2021/12/22 01:13:12;;;;;;;26.43;18.80;;;;;;;2.07;48.59;100629.22;5011015;28;20014;-81
2021/12/22 01:15:39;;;;;;;27.83;19.00;;;;;;;1.69;48.55;100602.97;5010994;28;20026;-81
2021/12/22 01:18:14;;;;;;;24.30;17.40;;;;;;;1.75;48.53;100585.22;5029280;28;20102;-81
2021/12/22 01:21:21;;;;;;;23.73;17.80;;;;;;;1.81;48.33;100605.66;5011021;28;20037;-81
2021/12/22 01:23:40;;;;;;;27.47;17.83;;;;;;;1.51;48.75;100548.53;5024086;28;20110;-81
2021/12/22 01:26:07;;;;;;;;;;;;;;;1.81;49.11;100617.84;5027852;28;20034;-81
2021/12/22 01:28:40;;;;;;;23.37;16.50;;;;;;;1.74;48.79;100629.56;5008916;28;20353;-81
2021/12/22 01:31:06;;;;;;;15.77;12.37;;;;;;;1.49;48.51;100546.97;5009409;28;20044;-81
2021/12/22 01:33:32;;;;;;;13.20;11.57;;;;;;;0.98;48.63;100485.97;5009764;28;20018;-81
2021/12/22 01:35:57;;;;;;;12.80;9.43;;;;;;;1.25;48.47;100510.28;5009524;28;20030;-81
2021/12/22 01:38:23;;;;;;;10.93;9.20;;;;;;;1.80;48.60;100605.75;5026663;28;20093;-81
2021/12/22 01:40:48;;;;;;;13.07;10.77;;;;;;;1.63;48.70;100612.00;5027543;28;20029;-81
2021/12/22 01:43:16;;;;;;;13.87;11.00;;;;;;;1.92;48.72;100618.00;5027433;28;20056;-81
2021/12/22 01:46:08;;;;;;;12.57;10.17;;;;;;;0.52;49.07;100434.97;5026965;28;20026;-81
2021/12/22 01:52:00;;;;;;;14.77;10.80;;;;;;;1.42;48.73;100530.03;5027613;28;19932;-81
2021/12/22 01:54:40;;;;;;;15.13;10.40;;;;;;;1.82;48.99;100602.13;5009625;28;20037;-81
2021/12/22 01:57:10;;;;;;;18.43;11.40;;;;;;;0.00;49.00;100328.19;5008417;28;20030;-81
2021/12/22 01:59:38;;;;;;;14.23;10.87;;;;;;;1.79;49.53;100602.31;5025955;28;20021;-81
2021/12/22 02:02:07;;;;;;;15.27;10.00;;;;;;;-0.69;49.18;100210.34;5008597;28;20029;-81
2021/12/22 02:04:33;;;;;;;15.50;10.97;;;;;;;1.04;49.36;100509.00;5008881;28;20032;-81
2021/12/22 02:06:59;;;;;;;13.67;10.33;;;;;;;1.55;49.34;100586.47;5008671;28;20033;-81
2021/12/22 02:11:52;;;;;;;17.80;12.37;;;;;;;0.24;49.59;100443.59;5026540;28;20026;-81
2021/12/22 02:14:18;;;;;;;16.03;12.30;;;;;;;0.37;49.84;100448.88;5008583;28;20028;-81
2021/12/22 02:16:43;;;;;;;18.83;13.47;;;;;;;-1.23;49.86;100179.81;5009268;28;20090;-81
2021/12/22 02:19:10;;;;;;;17.70;14.13;;;;;;;-1.10;49.58;100215.31;5026077;28;20093;-81
2021/12/22 02:21:45;;;;;;;19.57;14.60;;;;;;;-0.89;49.50;100225.34;5008376;28;20030;-81
2021/12/22 02:37:24;;;;;;;25.70;17.77;;;;;;;-0.45;49.61;100329.97;5275019;22;20037;-83
2021/12/22 02:39:59;;;;;;;25.63;18.60;;;;;;;-0.79;49.22;100266.22;5039226;28;20037;-81
2021/12/22 02:56:26;;;;;;;23.87;17.60;;;;;;;0.73;49.86;100471.00;5966198;22;20049;-84
2021/12/22 03:08:47;;;;;;;30.33;20.57;;;;;;;-1.04;49.36;100237.44;5581496;22;20065;-82
2021/12/22 03:24:10;;;;;;;27.97;21.57;;;;;;;0.37;49.09;100450.66;5644532;22;20054;-81
2021/12/22 03:26:41;;;;;;;26.53;19.73;;;;;;;1.14;49.50;100494.50;5025210;28;20030;-80
2021/12/22 03:29:08;;;;;;;26.65;20.98;;;;;;;1.88;49.57;100634.75;5007390;28;20025;-81
2021/12/22 03:31:33;;;;;;;28.27;21.37;;;;;;;1.49;49.61;100578.19;5024960;28;20483;-81
2021/12/22 03:33:59;;;;;;;31.40;22.27;;;;;;;-0.61;49.42;100203.84;5006996;28;20104;-81
2021/12/22 03:36:24;;;;;;;28.37;20.90;;;;;;;1.79;49.70;100619.69;5024925;28;20036;-81
2021/12/22 03:38:50;;;;;;;34.80;25.10;;;;;;;0.93;49.76;100483.66;5026112;28;20034;-81
2021/12/22 03:41:15;;;;;;;29.47;20.53;;;;;;;1.38;49.29;100567.59;5007790;28;20026;-81
2021/12/22 03:43:41;;;;;;;31.97;21.50;;;;;;;0.76;49.49;100444.84;5024488;28;20056;-81
2021/12/22 03:46:06;;;;;;;34.97;22.07;;;;;;;0.95;49.65;100502.59;5025474;28;20030;-81
2021/12/22 03:48:32;;;;;;;31.03;20.83;;;;;;;-0.24;49.77;100304.50;5008082;28;20026;-81
2021/12/22 03:50:57;;;;;;;28.83;18.20;;;;;;;-0.07;50.19;100321.69;5008147;28;20107;-81
2021/12/22 03:53:23;;;;;;;28.73;17.67;;;;;;;-0.02;50.24;100337.81;5025096;28;20049;-81
2021/12/22 03:55:49;;;;;;;25.73;18.10;;;;;;;0.96;50.64;100519.84;5007475;28;20026;-81
2021/12/22 03:58:14;;;;;;;23.73;16.13;;;;;;;1.84;50.87;100654.09;5025585;28;20029;-81
2021/12/22 04:00:41;;;;;;;19.33;14.27;;;;;;;-0.61;50.86;100303.25;5008899;28;20033;-81
2021/12/22 04:03:15;;;;;;;23.73;14.67;;;;;;;0.51;50.68;100427.28;5011803;28;20026;-81
2021/12/22 04:05:41;;;;;;;22.63;15.73;;;;;;;1.36;50.85;100593.69;5029083;28;20563;-81
2021/12/22 04:08:06;;;;;;;22.60;15.10;;;;;;;0.59;51.29;100470.06;5029250;28;20033;-81
2021/12/22 04:10:32;;;;;;;23.40;15.73;;;;;;;1.01;51.21;100561.19;5029829;28;20030;-81
2021/12/22 04:12:57;;;;;;;22.73;14.87;;;;;;;1.66;51.72;100696.88;5012233;28;20044;-81
2021/12/22 04:15:26;;;;;;;26.90;15.67;;;;;;;0.77;51.71;100535.72;5029400;28;20097;-81
2021/12/22 04:17:52;;;;;;;27.50;17.40;;;;;;;1.17;51.53;100590.53;5009863;28;20022;-81
2021/12/22 04:20:18;;;;;;;21.90;15.33;;;;;;;1.04;51.33;100546.22;5027537;28;20060;-81
2021/12/22 04:22:44;;;;;;;22.60;16.10;;;;;;;0.53;51.71;100474.78;5010359;28;20034;-81
2021/12/22 04:25:10;;;;;;;24.43;15.77;;;;;;;0.18;51.49;100453.50;5009697;28;20028;-81
2021/12/22 04:27:37;;;;;;;23.70;15.13;;;;;;;1.39;51.81;100605.69;5027257;28;20037;-81
2021/12/22 04:30:05;;;;;;;21.63;15.13;;;;;;;-0.02;51.43;100398.34;5027845;28;20525;-81
2021/12/22 04:32:30;;;;;;;22.13;16.23;;;;;;;-0.02;52.11;100400.94;5027190;28;20030;-81
2021/12/22 04:34:56;;;;;;;21.97;15.13;;;;;;;0.45;51.89;100457.06;5026848;28;20034;-81
2021/12/22 04:37:21;;;;;;;22.23;14.83;;;;;;;-1.06;51.76;100254.81;5009442;28;20038;-81
2021/12/22 04:39:47;;;;;;;20.40;14.33;;;;;;;1.17;52.03;100663.38;5009882;28;20052;-81
2021/12/22 04:42:15;;;;;;;20.23;15.03;;;;;;;-0.11;51.82;100383.31;5008580;28;20038;-81
2021/12/22 04:44:40;;;;;;;22.00;16.27;;;;;;;0.82;52.00;100577.88;5009090;28;20022;-81
2021/12/22 04:47:06;;;;;;;22.20;15.33;;;;;;;0.71;52.04;100511.84;5026791;28;20030;-81
2021/12/22 04:49:31;;;;;;;21.57;15.57;;;;;;;0.50;52.11;100485.38;5009435;28;20038;-81
2021/12/22 04:51:58;;;;;;;27.97;16.57;;;;;;;0.22;52.16;100448.03;5026387;28;20034;-81
2021/12/22 04:56:53;;;;;;;22.90;15.23;;;;;;;1.62;52.12;100677.19;5025679;28;20030;-81
2021/12/22 04:59:18;;;;;;;24.40;16.60;;;;;;;0.41;52.34;100524.88;5025159;28;20121;-81
2021/12/22 05:01:44;;;;;;;21.33;15.37;;;;;;;0.50;52.40;100486.19;5025680;28;20101;-81
2021/12/22 05:04:09;;;;;;;21.53;15.93;;;;;;;1.01;52.47;100598.44;5025237;28;20041;-81
2021/12/22 05:06:35;;;;;;;26.13;17.27;;;;;;;1.48;52.25;100659.75;5025643;28;20442;-81
2021/12/22 05:09:02;;;;;;;31.80;19.60;;;;;;;1.22;52.41;100607.53;5026061;28;20030;-81
2021/12/22 05:11:27;;;;;;;26.27;18.37;;;;;;;1.36;52.33;100630.13;5025786;28;20049;-81
2021/12/22 05:13:53;;;;;;;36.33;20.47;;;;;;;0.34;52.63;100469.84;5006036;28;20101;-81
2021/12/22 05:16:19;;;;;;;32.03;22.03;;;;;;;0.74;52.80;100554.06;5024318;28;20451;-81
2021/12/22 05:21:14;;;;;;;33.80;21.53;;;;;;;0.97;52.61;100609.09;5027296;28;20041;-81
2021/12/22 05:23:40;;;;;;;35.43;21.00;;;;;;;-0.24;52.55;100395.34;5009596;28;20085;-81
2021/12/22 05:26:05;;;;;;;36.97;22.07;;;;;;;0.12;52.45;100427.91;5008870;28;20396;-81
2021/12/22 05:28:31;;;;;;;50.17;22.07;;;;;;;1.23;52.30;100593.59;5026361;28;20510;-81
2021/12/22 05:30:56;;;;;;;34.70;20.13;;;;;;;1.03;52.17;100609.56;5025732;28;20453;-81
2021/12/22 05:33:21;;;;;;;37.67;21.10;;;;;;;1.66;52.58;100686.47;5026486;28;20026;-81
2021/12/22 05:35:47;;;;;;;37.40;20.27;;;;;;;0.12;52.24;100435.69;5025809;28;20549;-80
2021/12/22 05:38:13;;;;;;;35.10;19.77;;;;;;;0.09;52.13;100475.66;5026030;28;20026;-81
2021/12/22 05:40:39;;;;;;;30.63;19.83;;;;;;;1.77;52.22;100681.44;5025595;28;20034;-81
2021/12/22 05:43:04;;;;;;;33.43;20.40;;;;;;;0.54;52.04;100507.66;5025582;28;20068;-81
2021/12/22 05:45:29;;;;;;;32.97;22.73;;;;;;;0.93;52.43;100559.03;5025696;28;20052;-81
2021/12/22 05:47:55;;;;;;;54.77;35.60;;;;;;;1.87;52.23;100690.38;5007700;28;20045;-81
2021/12/22 05:50:22;;;;;;;65.60;41.60;;;;;;;0.90;52.36;100548.81;5008634;28;20033;-81
2021/12/22 05:52:48;;;;;;;72.17;44.77;;;;;;;1.42;52.24;100688.75;5025570;28;20046;-81
2021/12/22 05:55:14;;;;;;;66.40;41.73;;;;;;;0.19;52.46;100457.78;5008336;28;20033;-81
2021/12/22 05:57:39;;;;;;;66.57;43.00;;;;;;;0.98;52.67;100598.59;5008093;28;20079;-81
2021/12/22 06:00:06;;;;;;;60.40;40.50;;;;;;;1.03;52.73;100612.16;5008047;28;20034;-81
2021/12/22 06:02:32;;;;;;;71.73;46.80;;;;;;;-0.24;52.44;100436.84;5007799;28;20030;-81
2021/12/22 06:04:57;;;;;;;72.83;47.00;;;;;;;1.61;52.48;100759.63;5023751;28;20037;-81
2021/12/22 06:07:23;;;;;;;66.33;48.20;;;;;;;1.54;52.69;100714.09;5007936;28;20033;-81
2021/12/22 06:09:48;;;;;;;75.43;55.47;;;;;;;0.89;52.85;100612.16;5025514;28;20045;-81
2021/12/22 06:12:14;;;;;;;68.47;48.77;;;;;;;1.00;52.92;100640.97;5006755;28;20412;-81
2021/12/22 06:14:39;;;;;;;63.73;46.60;;;;;;;0.54;52.75;100563.03;5006660;28;20014;-81
2021/12/22 06:17:05;;;;;;;62.23;44.53;;;;;;;0.57;52.76;100612.25;5024502;28;20030;-81
2021/12/22 06:19:30;;;;;;;67.03;47.83;;;;;;;-0.04;52.89;100501.44;5024512;28;20613;-81
2021/12/22 06:21:56;;;;;;;57.10;41.70;;;;;;;1.00;53.14;100679.97;5006880;28;20029;-81
2021/12/22 06:24:21;;;;;;;68.50;47.93;;;;;;;0.77;52.84;100644.06;5023929;28;20439;-81
2021/12/22 06:26:47;;;;;;;59.43;42.53;;;;;;;0.60;53.16;100638.03;5023536;28;20022;-80
2021/12/22 06:29:12;;;;;;;69.40;43.53;;;;;;;0.85;52.87;100663.50;5021775;28;20029;-81
2021/12/22 06:31:38;;;;;;;75.47;47.77;;;;;;;0.94;52.82;100701.13;5015407;28;20041;-80
2021/12/22 06:34:03;;;;;;;76.40;44.50;;;;;;;0.92;52.92;100693.41;5014841;28;20521;-80
2021/12/22 06:36:29;;;;;;;76.53;44.17;;;;;;;0.62;52.97;100648.34;5016199;28;20100;-80
2021/12/22 06:38:55;;;;;;;66.00;40.37;;;;;;;0.58;52.87;100668.47;5011973;28;20026;-80
2021/12/22 06:41:20;;;;;;;59.80;39.83;;;;;;;0.95;52.87;100711.44;5014407;28;20025;-79
2021/12/22 06:43:45;;;;;;;64.53;39.60;;;;;;;1.07;52.52;100709.06;5016141;28;20320;-80
2021/12/22 06:46:11;;;;;;;61.03;39.17;;;;;;;1.17;52.61;100725.78;5009451;28;20021;-79
2021/12/22 06:48:36;;;;;;;61.43;38.70;;;;;;;0.50;52.96;100665.47;5019465;28;20018;-80
2021/12/22 06:51:02;;;;;;;60.50;37.47;;;;;;;1.16;52.43;100769.19;5005183;28;20030;-80
2021/12/22 06:53:27;;;;;;;56.57;36.73;;;;;;;-0.75;52.62;100458.75;5020694;28;20049;-80
2021/12/22 06:55:53;;;;;;;52.87;35.80;;;;;;;-0.46;52.60;100483.94;5013395;28;20034;-80
2021/12/22 06:58:18;;;;;;;61.40;40.53;;;;;;;0.43;52.69;100661.56;5000513;28;20052;-80
2021/12/22 07:00:45;;;;;;;68.43;47.20;;;;;;;-0.18;52.55;100550.69;5019371;28;20065;-80
2021/12/22 07:03:11;;;;;;;64.97;46.23;;;;;;;1.09;52.12;100749.66;5015249;28;20033;-80
2021/12/22 07:05:36;;;;;;;64.03;43.90;;;;;;;0.92;52.34;100721.16;5013553;28;20077;-80
2021/12/22 07:08:02;;;;;;;69.60;47.73;;;;;;;0.54;52.69;100674.78;5008354;28;20049;-79
2021/12/22 07:10:27;;;;;;;73.57;52.50;;;;;;;0.81;52.49;100714.00;4978876;28;20033;-79
2021/12/22 07:12:53;;;;;;;99.10;67.70;;;;;;;0.88;52.70;100733.50;4993281;28;20030;-79
2021/12/22 07:15:19;;;;;;;87.17;55.93;;;;;;;0.88;52.80;100735.28;5009268;28;20025;-79
2021/12/22 07:17:47;;;;;;;77.83;51.40;;;;;;;0.48;52.75;100667.31;4989553;28;20029;-79
2021/12/22 07:20:13;;;;;;;71.53;47.40;;;;;;;0.87;52.59;100738.81;4992574;28;20416;-79
2021/12/22 07:22:39;;;;;;;80.53;51.70;;;;;;;0.87;52.60;100744.00;4991989;28;20037;-79
2021/12/22 07:25:06;;;;;;;75.80;50.63;;;;;;;0.59;52.64;100703.09;5011189;28;20022;-79
2021/12/22 07:27:32;;;;;;;69.93;46.40;;;;;;;0.36;52.38;100690.56;5007488;28;20030;-79
2021/12/22 07:29:57;;;;;;;68.27;45.27;;;;;;;0.85;52.66;100738.88;5007902;28;20032;-79
2021/12/22 07:32:23;;;;;;;64.03;42.60;;;;;;;0.69;52.64;100712.06;5003597;28;20418;-79
2021/12/22 07:34:57;;;;;;;63.40;40.10;;;;;;;0.91;52.45;100745.50;4991763;28;20049;-80
2021/12/22 07:37:43;;;;;;;64.63;43.10;;;;;;;0.41;52.30;100654.78;5000889;28;20038;-79
2021/12/22 07:40:15;;;;;;;50.50;33.87;;;;;;;0.99;52.17;100747.66;4999275;28;20037;-79
2021/12/22 07:42:41;;;;;;;;;;;;;;;0.88;52.27;100754.31;5005243;28;20051;-79
2021/12/22 07:45:07;;;;;;;45.07;31.17;;;;;;;0.56;52.48;100685.09;5010923;28;19956;-79
2021/12/22 07:47:33;;;;;;;53.87;36.10;;;;;;;0.98;52.28;100751.19;5008076;28;20025;-78
2021/12/22 07:49:58;;;;;;;65.80;46.10;;;;;;;1.00;52.44;100764.94;5010385;28;20026;-80
2021/12/22 07:52:26;;;;;;;47.20;33.20;;;;;;;0.66;52.23;100696.63;5011894;28;20024;-79
2021/12/22 07:54:52;;;;;;;48.37;33.47;;;;;;;1.10;52.01;100759.13;5009778;28;20471;-79
2021/12/22 07:57:17;;;;;;;44.03;31.93;;;;;;;1.18;52.17;100777.72;5010556;28;20132;-78
2021/12/22 07:59:43;;;;;;;42.47;26.80;;;;;;;0.80;51.85;100680.28;4990549;28;20530;-78
2021/12/22 08:02:10;;;;;;;38.73;26.57;;;;;;;0.78;51.59;100682.13;5005868;28;20038;-79
2021/12/22 08:04:36;;;;;;;45.77;28.83;;;;;;;1.30;51.39;100759.72;5008842;28;20053;-78
2021/12/22 08:07:02;;;;;;;44.87;29.60;;;;;;;1.50;51.30;100760.28;4990222;28;20037;-78
2021/12/22 08:09:27;;;;;;;42.07;28.20;;;;;;;1.30;51.06;100705.09;5010375;28;20049;-77
2021/12/22 08:11:54;;;;;;;37.83;27.53;;;;;;;1.22;51.05;100689.94;5009492;28;20053;-77
2021/12/22 08:14:22;;;;;;;47.63;31.20;;;;;;;1.29;50.96;100699.06;5009192;28;20116;-77
2021/12/22 08:16:47;;;;;;;45.73;30.30;;;;;;;0.94;51.16;100626.56;5006886;28;20053;-78
2021/12/22 08:19:13;;;;;;;52.00;34.00;;;;;;;1.25;51.10;100675.00;4987401;28;20065;-77
2021/12/22 08:21:38;;;;;;;56.53;37.00;;;;;;;1.89;51.00;100754.44;5004329;28;20018;-77
2021/12/22 08:24:04;;;;;;;36.87;25.57;;;;;;;1.62;50.57;100711.84;5006753;28;20018;-82
2021/12/22 08:26:30;;;;;;;42.23;27.37;;;;;;;1.31;50.57;100634.75;4983514;28;20120;-82
2021/12/22 08:28:55;;;;;;;33.90;21.53;;;;;;;1.33;50.11;100621.66;5007750;28;20022;-82
2021/12/22 08:31:20;;;;;;;30.23;22.33;;;;;;;1.50;49.76;100637.13;5007765;28;20030;-81
2021/12/22 08:33:47;;;;;;;34.73;23.70;;;;;;;2.20;49.94;100739.53;5003095;28;20081;-81
2021/12/22 08:39:00;;;;;;;36.20;24.53;;;;;;;2.48;49.65;100752.53;5010741;28;20028;-80
2021/12/22 08:41:31;;;;;;;37.40;21.03;;;;;;;2.49;49.49;100746.38;5015864;28;20052;-80
2021/12/22 08:43:59;;;;;;;33.97;22.90;;;;;;;2.17;49.42;100692.81;5020385;28;20022;-82
2021/12/22 08:46:25;;;;;;;31.50;21.63;;;;;;;1.90;49.53;100662.38;5017297;28;20081;-82
2021/12/22 08:48:51;;;;;;;38.07;28.10;;;;;;;1.62;49.50;100592.13;5011839;28;20025;-81
2021/12/22 08:51:16;;;;;;;39.30;28.50;;;;;;;2.59;48.96;100751.03;5012352;28;20064;-82
2021/12/22 08:53:42;;;;;;;40.13;28.83;;;;;;;2.63;49.42;100752.50;5015513;28;20081;-81
2021/12/22 08:56:07;;;;;;;44.10;30.63;;;;;;;2.68;49.09;100755.66;5030780;28;20095;-82
2021/12/22 08:58:34;;;;;;;32.60;24.13;;;;;;;2.45;48.89;100711.03;5008157;28;20064;-81
2021/12/22 09:01:00;;;;;;;31.73;23.17;;;;;;;2.14;48.73;100659.16;5015796;28;20577;-82
2021/12/22 09:03:25;;;;;;;29.63;22.37;;;;;;;2.73;48.63;100740.53;5004712;28;20025;-81
2021/12/22 09:05:50;;;;;;;33.30;23.63;;;;;;;2.46;48.29;100704.03;5025551;28;20022;-82
2021/12/22 09:08:16;;;;;;;32.60;23.37;;;;;;;2.56;48.15;100710.34;5022519;28;20538;-82
2021/12/22 09:10:41;;;;;;;33.83;26.27;;;;;;;2.29;48.30;100671.25;5018167;28;20030;-81
2021/12/22 09:13:07;;;;;;;36.20;25.47;;;;;;;2.74;47.95;100713.53;5023579;28;20045;-82
2021/12/22 09:15:33;;;;;;;36.50;27.23;;;;;;;2.50;48.03;100677.69;5016359;28;20675;-82
2021/12/22 09:17:58;;;;;;;34.60;24.47;;;;;;;2.65;47.75;100694.09;5025908;28;20017;-82
2021/12/22 09:20:24;;;;;;;23.17;18.67;;;;;;;2.43;47.67;100662.53;5009846;28;20022;-82
2021/12/22 09:22:50;;;;;;;25.70;19.20;;;;;;;2.90;47.20;100723.81;5017555;28;20033;-82
2021/12/22 09:25:15;;;;;;;28.50;19.23;;;;;;;2.69;47.37;100699.97;5015935;28;20026;-82
2021/12/22 09:27:41;;;;;;;40.03;25.77;;;;;;;2.15;47.30;100600.91;5021554;28;20022;-82
2021/12/22 09:30:08;;;;;;;32.10;23.40;;;;;;;1.18;47.52;100439.59;5017804;28;20022;-82
2021/12/22 09:32:33;;;;;;;30.10;22.53;;;;;;;2.32;46.72;100608.50;5021313;28;20045;-82
2021/12/22 09:34:59;;;;;;;28.57;20.33;;;;;;;2.71;46.63;100656.38;5018189;28;20053;-83
2021/12/22 09:37:24;;;;;;;35.27;25.63;;;;;;;2.66;46.95;100653.22;4997836;28;20109;-82
2021/12/22 09:39:50;;;;;;;28.23;21.20;;;;;;;2.81;46.60;100644.38;5016916;28;20030;-82
2021/12/22 09:42:16;;;;;;;26.47;20.13;;;;;;;3.23;46.04;100697.28;5016196;28;20022;-82
2021/12/22 09:44:44;;;;;;;26.27;19.17;;;;;;;3.19;45.96;100681.00;5019896;28;20026;-82
2021/12/22 09:47:12;;;;;;;26.83;19.63;;;;;;;3.26;46.07;100713.56;5022818;28;20014;-82
2021/12/22 09:52:21;;;;;;;32.23;22.33;;;;;;;3.08;45.83;100650.41;5019180;28;20406;-81
2021/12/22 09:54:52;;;;;;;25.63;19.83;;;;;;;3.39;45.57;100680.47;5022371;28;20125;-82
2021/12/22 09:57:21;;;;;;;18.65;14.60;;;;;;;3.50;45.88;100684.97;5020637;28;20010;-81
2021/12/22 09:59:48;;;;;;;21.70;13.33;;;;;;;3.59;45.23;100680.88;5029405;28;20002;-82
2021/12/22 10:02:15;;;;;;;24.40;16.57;;;;;;;3.13;44.93;100611.78;5018750;28;20087;-81
2021/12/22 10:04:41;;;;;;;18.77;14.60;;;;;;;2.75;44.95;100537.88;5011172;28;20029;-82
2021/12/22 10:07:09;;;;;;;22.13;16.63;;;;;;;3.55;44.27;100672.44;5030883;28;20022;-82
2021/12/22 10:09:45;;;;;;;15.73;12.27;;;;;;;3.70;43.96;100675.75;5033449;28;20037;-83
2021/12/22 10:12:16;;;;;;;16.57;13.47;;;;;;;2.94;43.65;100553.94;5030615;28;20048;-82
2021/12/22 10:14:51;;;;;;;19.10;13.47;;;;;;;3.50;43.11;100661.47;5019587;28;20018;-81
2021/12/22 10:17:27;;;;;;;15.97;12.53;;;;;;;3.60;42.54;100666.91;5007384;28;20415;-82
2021/12/22 10:19:56;;;;;;;21.30;14.63;;;;;;;3.04;43.71;100578.50;5030895;28;20022;-83
2021/12/22 10:22:29;;;;;;;25.30;16.63;;;;;;;3.42;43.48;100617.63;5036862;28;20045;-82
2021/12/22 10:25:03;;;;;;;17.10;12.63;;;;;;;3.17;42.74;100576.72;5020612;28;20088;-82
2021/12/22 10:27:29;;;;;;;18.27;13.20;;;;;;;3.74;43.46;100659.81;5025128;28;20029;-82
2021/12/22 10:29:55;;;;;;;22.47;14.73;;;;;;;3.83;43.10;100667.00;5032420;28;20022;-82
2021/12/22 10:32:20;;;;;;;21.27;14.87;;;;;;;3.12;43.13;100542.28;5030215;28;20002;-82
2021/12/22 10:35:05;;;;;;;17.83;12.83;;;;;;;3.44;42.72;100579.19;5019634;28;20035;-82
2021/12/22 10:37:36;;;;;;;16.23;10.80;;;;;;;4.05;43.01;100662.88;5034618;28;20026;-83
2021/12/22 10:40:25;;;;;;;10.48;8.35;;;;;;;3.20;41.84;100523.47;5037652;28;20029;-83
2021/12/22 10:42:51;;;;;;;12.33;10.63;;;;;;;3.91;42.51;100636.88;5021872;28;20072;-83
2021/12/22 10:45:18;;;;;;;10.93;9.47;;;;;;;4.09;42.55;100652.09;5020968;28;20026;-83
2021/12/22 10:50:35;;;;;;;16.17;10.93;;;;;;;4.08;42.78;100649.56;5032945;28;20041;-83
2021/12/22 10:53:01;;;;;;;15.07;9.67;;;;;;;3.32;42.24;100517.41;5033930;28;20069;-83
2021/12/22 10:55:38;;;;;;;9.37;7.60;;;;;;;3.77;41.47;100585.63;5019758;28;20423;-83
2021/12/22 10:58:18;;;;;;;9.43;7.50;;;;;;;3.59;40.48;100550.31;5034770;28;20018;-83
2021/12/22 11:00:45;;;;;;;19.23;12.50;;;;;;;4.16;42.14;100639.41;5035093;28;20033;-83
2021/12/22 11:03:15;;;;;;;9.17;8.03;;;;;;;3.69;42.00;100564.41;5033685;28;20443;-83
2021/12/22 11:05:46;;;;;;;9.50;8.30;;;;;;;3.09;41.78;100472.03;5026444;28;20022;-83
2021/12/22 11:08:26;;;;;;;13.27;10.50;;;;;;;4.29;41.77;100637.56;5034094;28;20037;-83
2021/12/22 11:10:52;;;;;;;12.23;9.93;;;;;;;3.95;41.98;100579.06;5031241;28;20030;-83
2021/12/22 11:13:23;;;;;;;15.57;11.80;;;;;;;3.57;41.84;100497.38;5018998;28;20033;-83
2021/12/22 11:15:50;;;;;;;14.77;11.57;;;;;;;3.44;41.84;100487.81;5019115;28;20046;-83
2021/12/22 11:18:34;;;;;;;17.63;13.10;;;;;;;3.49;41.02;100488.31;5034538;28;20021;-83
2021/12/22 11:21:23;;;;;;;13.63;10.17;;;;;;;4.37;41.05;100622.16;5014868;28;20029;-83
2021/12/22 11:23:49;;;;;;;13.97;11.37;;;;;;;4.02;41.54;100571.63;5016192;28;20064;-83
2021/12/22 11:26:15;;;;;;;12.53;9.93;;;;;;;4.48;41.89;100621.41;5036165;28;20025;-83
2021/12/22 11:28:41;;;;;;;13.30;10.00;;;;;;;4.41;41.53;100610.53;5034184;28;20022;-83
2021/12/22 11:31:08;;;;;;;10.13;8.43;;;;;;;4.03;41.78;100581.97;5016179;28;20038;-83
2021/12/22 11:33:34;;;;;;;10.83;8.37;;;;;;;4.02;42.13;100588.13;4997118;28;20013;-83
2021/12/22 11:36:01;;;;;;;11.93;9.40;;;;;;;3.85;41.84;100543.28;5009137;28;20019;-82
2021/12/22 11:38:29;;;;;;;10.17;8.50;;;;;;;4.15;41.86;100596.75;5006420;28;20030;-81
2021/12/22 11:41:06;;;;;;;10.20;8.60;;;;;;;3.89;42.25;100569.06;5011004;28;20085;-82
2021/12/22 11:43:31;;;;;;;10.97;9.07;;;;;;;4.00;42.10;100579.56;5029689;28;20029;-82
2021/12/22 11:45:57;;;;;;;9.17;6.87;;;;;;;4.05;41.98;100600.16;5030771;28;20080;-82
2021/12/22 11:48:23;;;;;;;9.37;7.63;;;;;;;3.57;41.59;100513.88;5028635;28;20046;-82
2021/12/22 11:50:48;;;;;;;10.27;8.37;;;;;;;3.94;41.93;100585.25;5012959;28;20033;-82
2021/12/22 11:53:15;;;;;;;10.40;6.97;;;;;;;3.23;41.28;100471.06;5007208;28;20038;-82
2021/12/22 11:55:51;;;;;;;11.83;9.07;;;;;;;3.77;41.02;100562.94;5015046;28;20021;-83
2021/12/22 11:58:17;;;;;;;7.40;6.23;;;;;;;3.85;41.54;100583.28;5012137;28;20014;-83
2021/12/22 12:00:57;;;;;;;8.70;7.60;;;;;;;3.82;41.43;100583.50;5008724;28;20072;-82
2021/12/22 12:03:26;;;;;;;9.17;7.60;;;;;;;3.91;41.65;100576.78;5028378;28;20042;-83
2021/12/22 12:06:02;;;;;;;12.27;7.37;;;;;;;4.00;40.80;100581.34;5029758;28;20026;-82
2021/12/22 12:08:34;;;;;;;8.53;7.03;;;;;;;4.08;41.05;100573.78;5042372;28;20112;-82
2021/12/22 12:11:00;;;;;;;;;;;;;;;4.01;40.26;100577.78;5027489;28;20030;-82
2021/12/22 12:13:48;;;;;;;10.30;7.47;;;;;;;4.12;41.54;100578.69;5032544;28;19909;-83
2021/12/22 12:22:33;;;;;;;9.17;6.10;;;;;;;3.77;40.76;100468.06;5023632;28;20040;-83
2021/12/22 12:25:06;;;;;;;8.70;7.13;;;;;;;4.50;40.61;100574.22;5017065;28;20084;-78
2021/12/22 12:27:31;;;;;;;9.33;5.93;;;;;;;4.49;40.67;100565.56;5010981;28;20030;-77
2021/12/22 12:29:59;;;;;;;6.60;5.90;;;;;;;4.55;40.48;100567.72;5015398;28;20041;-78
2021/12/22 12:32:40;;;;;;;8.03;7.20;;;;;;;4.56;40.10;100566.75;4995795;28;20053;-78
2021/12/22 12:35:22;;;;;;;9.90;8.27;;;;;;;4.58;39.75;100571.88;4999966;28;20499;-78